createdAt,value
2023-02-23T00:01:57.599Z,12.40
2023-02-23T00:04:24.819Z,12.22
2023-02-23T00:06:54.400Z,12.33
2023-02-23T00:09:25.044Z,12.32
2023-02-23T00:11:54.066Z,12.21
2023-02-23T00:14:25.115Z,12.14
2023-02-23T00:16:51.551Z,12.14
2023-02-23T00:19:18.063Z,12.13
2023-02-23T00:21:46.885Z,12.10
2023-02-23T00:24:15.864Z,12.07
2023-02-23T00:26:42.670Z,12.16
2023-02-23T00:29:13.316Z,12.16
2023-02-23T00:31:41.395Z,12.06
2023-02-23T00:34:07.891Z,11.95
2023-02-23T00:36:35.718Z,11.92
2023-02-23T00:39:11.868Z,11.84
2023-02-23T00:41:38.272Z,11.71
2023-02-23T00:44:04.691Z,11.74
2023-02-23T00:46:33.162Z,11.95
2023-02-23T00:49:00.204Z,12.08
2023-02-23T00:51:30.902Z,12.12
2023-02-23T00:53:59.887Z,12.13
2023-02-23T00:56:27.451Z,12.07
2023-02-23T00:58:55.173Z,12.14
2023-02-23T01:01:22.648Z,12.01
2023-02-23T01:03:49.445Z,11.97
2023-02-23T01:06:17.268Z,12.04
2023-02-23T01:08:50.393Z,12.11
2023-02-23T01:11:24.594Z,12.21
2023-02-23T01:13:56.679Z,12.22
2023-02-23T01:16:28.792Z,12.27
2023-02-23T01:18:59.096Z,12.23
2023-02-23T01:21:37.818Z,11.96
2023-02-23T01:24:05.327Z,11.95
2023-02-23T01:26:35.306Z,11.99
2023-02-23T01:29:13.746Z,12.02
2023-02-23T01:31:48.959Z,12.06
2023-02-23T01:34:15.540Z,12.10
2023-02-23T01:36:43.791Z,11.96
2023-02-23T01:39:20.956Z,11.89
2023-02-23T01:41:47.818Z,11.93
2023-02-23T01:44:14.233Z,11.84
2023-02-23T01:46:43.666Z,11.83
2023-02-23T01:49:15.862Z,11.81
2023-02-23T01:52:06.679Z,11.89
2023-02-23T01:54:41.492Z,11.97
2023-02-23T01:57:12.682Z,11.97
2023-02-23T01:59:42.506Z,11.94
2023-02-23T02:02:09.580Z,11.98
2023-02-23T02:04:44.312Z,11.83
2023-02-23T02:07:15.651Z,11.82
2023-02-23T02:10:04.100Z,11.75
2023-02-23T02:12:30.477Z,11.64
2023-02-23T02:14:59.581Z,11.51
2023-02-23T02:17:48.383Z,11.51
2023-02-23T02:20:33.570Z,11.48
2023-02-23T02:23:33.791Z,11.63
2023-02-23T02:26:34.169Z,11.64
2023-02-23T02:29:09.284Z,11.69
2023-02-23T02:32:17.250Z,11.67
2023-02-23T02:35:08.030Z,11.57
2023-02-23T02:37:40.539Z,11.52
2023-02-23T02:40:15.919Z,11.62
2023-02-23T02:43:11.405Z,11.76
2023-02-23T02:45:44.265Z,11.72
2023-02-23T02:48:19.982Z,11.80
2023-02-23T02:51:09.390Z,11.70
2023-02-23T02:53:45.428Z,11.61
2023-02-23T02:56:19.855Z,11.73
2023-02-23T02:58:50.006Z,11.71
2023-02-23T03:01:36.841Z,11.57
2023-02-23T03:04:39.055Z,11.52
2023-02-23T03:07:54.849Z,11.48
2023-02-23T03:11:01.400Z,11.59
2023-02-23T03:14:06.763Z,11.57
2023-02-23T03:17:15.431Z,11.63
2023-02-23T03:20:28.800Z,11.61
2023-02-23T03:23:22.774Z,11.69
2023-02-23T03:26:18.495Z,11.60
2023-02-23T03:29:12.414Z,11.48
2023-02-23T03:32:08.770Z,11.51
2023-02-23T03:35:05.415Z,11.39
2023-02-23T03:37:58.214Z,11.33
2023-02-23T03:40:50.220Z,11.37
2023-02-23T03:43:45.240Z,11.44
2023-02-23T03:46:33.314Z,11.49
2023-02-23T03:49:22.787Z,11.37
2023-02-23T03:52:14.236Z,11.46
2023-02-23T03:55:06.719Z,11.52
2023-02-23T03:57:55.767Z,11.46
2023-02-23T04:00:48.371Z,11.38
2023-02-23T04:03:37.452Z,11.24
2023-02-23T04:06:28.066Z,11.28
2023-02-23T04:09:20.006Z,11.25
2023-02-23T04:12:28.001Z,11.18
2023-02-23T04:15:01.566Z,11.30
2023-02-23T04:17:29.318Z,11.42
2023-02-23T04:19:56.721Z,11.30
2023-02-23T04:22:24.271Z,11.26
2023-02-23T04:24:51.359Z,11.24
2023-02-23T04:27:18.512Z,11.21
2023-02-23T04:29:45.159Z,11.14
2023-02-23T04:32:15.564Z,11.14
2023-02-23T04:34:42.875Z,11.12
2023-02-23T04:37:09.534Z,11.16
2023-02-23T04:39:35.968Z,11.17
2023-02-23T04:42:02.582Z,11.23
2023-02-23T04:44:29.273Z,11.21
2023-02-23T04:46:57.325Z,11.05
2023-02-23T04:49:24.286Z,11.03
2023-02-23T04:51:50.722Z,11.12
2023-02-23T04:54:17.445Z,11.05
2023-02-23T04:56:43.897Z,10.89
2023-02-23T04:59:10.521Z,10.88
2023-02-23T05:01:37.416Z,10.98
2023-02-23T05:04:03.939Z,11.11
2023-02-23T05:06:38.362Z,11.15
2023-02-23T05:09:06.278Z,11.24
2023-02-23T05:11:33.211Z,11.21
2023-02-23T05:13:59.969Z,11.14
2023-02-23T05:16:26.403Z,10.98
2023-02-23T05:18:55.721Z,10.87
2023-02-23T05:21:22.263Z,10.92
2023-02-23T05:23:48.708Z,11.07
2023-02-23T05:26:15.337Z,11.15
2023-02-23T05:28:43.065Z,11.15
2023-02-23T05:31:10.374Z,11.12
2023-02-23T05:33:45.626Z,11.14
2023-02-23T05:36:16.272Z,11.19
2023-02-23T05:38:43.582Z,11.18
2023-02-23T05:41:12.798Z,11.23
2023-02-23T05:43:39.580Z,11.26
2023-02-23T05:46:07.930Z,11.12
2023-02-23T05:48:35.056Z,11.01
2023-02-23T05:51:03.537Z,10.85
2023-02-23T05:53:30.031Z,10.87
2023-02-23T05:55:56.490Z,11.03
2023-02-23T05:58:24.280Z,11.09
2023-02-23T06:00:51.396Z,11.14
2023-02-23T06:03:18.694Z,11.13
2023-02-23T06:05:57.086Z,11.08
2023-02-23T06:08:25.973Z,10.92
2023-02-23T06:10:52.977Z,10.82
2023-02-23T06:13:21.084Z,10.81
2023-02-23T06:15:47.568Z,10.84
2023-02-23T06:18:14.072Z,10.69
2023-02-23T06:20:45.880Z,10.69
2023-02-23T06:23:13.114Z,10.85
2023-02-23T06:25:40.447Z,10.92
2023-02-23T06:28:08.546Z,10.87
2023-02-23T06:30:35.447Z,10.90
2023-02-23T06:33:01.954Z,11.02
2023-02-23T06:35:32.577Z,11.02
2023-02-23T06:37:59.849Z,11.04
2023-02-23T06:40:32.250Z,11.11
2023-02-23T06:42:59.667Z,11.13
2023-02-23T06:45:26.496Z,11.17
2023-02-23T06:47:54.750Z,11.06
2023-02-23T06:50:21.443Z,11.04
2023-02-23T06:52:48.763Z,11.06
2023-02-23T06:55:15.888Z,11.06
2023-02-23T06:57:44.033Z,11.03
2023-02-23T07:00:15.035Z,11.06
2023-02-23T07:02:41.990Z,11.02
2023-02-23T07:05:08.953Z,11.13
2023-02-23T07:07:35.585Z,10.98
2023-02-23T07:10:02.016Z,10.75
2023-02-23T07:12:30.155Z,10.88
2023-02-23T07:14:56.964Z,11.10
2023-02-23T07:17:24.875Z,11.15
2023-02-23T07:19:51.379Z,11.21
2023-02-23T07:22:17.868Z,11.31
2023-02-23T07:24:44.353Z,11.37
2023-02-23T07:27:11.499Z,11.29
2023-02-23T07:29:38.122Z,11.23
2023-02-23T07:32:05.448Z,11.15
2023-02-23T07:34:32.045Z,11.10
2023-02-23T07:36:58.533Z,11.10
2023-02-23T07:39:25.612Z,11.09
2023-02-23T07:41:52.142Z,11.12
2023-02-23T07:44:19.281Z,11.17
2023-02-23T07:46:46.419Z,11.09
2023-02-23T07:49:13.818Z,11.03
2023-02-23T07:51:40.576Z,10.92
2023-02-23T07:54:07.331Z,10.99
2023-02-23T07:56:33.910Z,11.15
2023-02-23T07:59:00.382Z,11.25
2023-02-23T08:01:26.918Z,11.42
2023-02-23T08:03:53.824Z,11.42
2023-02-23T08:06:20.805Z,11.49
2023-02-23T08:08:47.457Z,11.44
2023-02-23T08:11:14.004Z,11.61
2023-02-23T08:13:40.438Z,11.82
2023-02-23T08:16:07.302Z,11.88
2023-02-23T08:18:33.781Z,12.07
2023-02-23T08:21:02.386Z,12.31
2023-02-23T08:23:33.147Z,12.44
2023-02-23T08:26:00.835Z,12.64
2023-02-23T08:28:28.419Z,12.68
2023-02-23T08:30:59.340Z,12.74
2023-02-23T08:33:26.211Z,12.74
2023-02-23T08:35:55.631Z,12.72
2023-02-23T08:38:22.580Z,12.53
2023-02-23T08:40:49.053Z,12.47
2023-02-23T08:43:16.308Z,12.40
2023-02-23T08:45:42.790Z,12.44
2023-02-23T08:48:09.257Z,12.43
2023-02-23T08:50:36.022Z,12.45
2023-02-23T08:53:02.605Z,12.53
2023-02-23T08:55:29.077Z,12.46
2023-02-23T08:57:55.627Z,12.61
2023-02-23T09:00:22.671Z,12.65
2023-02-23T09:02:50.027Z,12.64
2023-02-23T09:05:17.537Z,12.84
2023-02-23T09:07:45.277Z,13.06
2023-02-23T09:10:14.429Z,13.30
2023-02-23T09:12:40.974Z,13.51
2023-02-23T09:15:08.249Z,13.58
2023-02-23T09:17:34.814Z,13.72
2023-02-23T09:20:02.131Z,13.86
2023-02-23T09:22:28.608Z,14.00
2023-02-23T09:24:55.852Z,14.16
2023-02-23T09:27:22.365Z,14.37
2023-02-23T09:29:49.321Z,14.38
2023-02-23T09:32:16.231Z,14.59
2023-02-23T09:34:43.001Z,14.65
2023-02-23T09:37:09.516Z,14.73
2023-02-23T09:39:38.770Z,14.99
2023-02-23T09:42:36.937Z,14.90
2023-02-23T09:45:18.471Z,14.75
2023-02-23T09:48:09.913Z,14.75
2023-02-23T09:50:39.696Z,14.50
2023-02-23T09:53:29.193Z,14.39
2023-02-23T09:55:58.225Z,14.16
2023-02-23T09:58:27.728Z,14.17
2023-02-23T10:01:00.194Z,14.26
2023-02-23T10:03:33.728Z,14.20
2023-02-23T10:06:04.137Z,14.38
2023-02-23T10:09:03.381Z,14.54
2023-02-23T10:11:42.000Z,14.63
2023-02-23T10:14:26.804Z,14.87
2023-02-23T10:17:08.652Z,15.03
2023-02-23T10:19:47.949Z,15.22
2023-02-23T10:22:15.834Z,15.38
2023-02-23T10:25:02.428Z,15.26
2023-02-23T10:27:42.089Z,15.61
2023-02-23T10:30:19.199Z,15.83
2023-02-23T10:33:20.874Z,15.79
2023-02-23T10:35:47.856Z,16.03
2023-02-23T10:38:19.896Z,16.27
2023-02-23T10:40:56.274Z,16.33
2023-02-23T10:43:28.074Z,16.46
2023-02-23T10:45:56.185Z,16.48
2023-02-23T10:48:31.845Z,16.69
2023-02-23T10:51:03.180Z,16.87
2023-02-23T10:53:37.570Z,16.95
2023-02-23T10:56:12.556Z,17.14
2023-02-23T10:58:50.870Z,17.32
2023-02-23T11:01:32.752Z,17.50
2023-02-23T11:04:20.831Z,17.73
2023-02-23T11:06:48.644Z,17.58
2023-02-23T11:09:43.300Z,17.58
2023-02-23T11:12:41.673Z,17.97
2023-02-23T11:15:46.290Z,18.19
2023-02-23T11:18:26.248Z,18.50
2023-02-23T11:20:53.466Z,18.81
2023-02-23T11:23:22.974Z,18.79
2023-02-23T11:25:55.649Z,19.43
2023-02-23T11:28:43.095Z,19.62
2023-02-23T11:31:29.844Z,19.87
2023-02-23T11:33:58.117Z,19.99
2023-02-23T11:36:27.105Z,20.87
2023-02-23T11:39:17.010Z,21.15
2023-02-23T11:41:43.630Z,21.60
2023-02-23T11:44:22.358Z,21.92
2023-02-23T11:46:50.677Z,23.05
2023-02-23T11:49:37.152Z,23.19
2023-02-23T11:52:03.880Z,24.02
2023-02-23T11:54:33.370Z,25.00
2023-02-23T11:57:02.700Z,25.89
2023-02-23T11:59:37.432Z,26.48
2023-02-23T12:02:25.506Z,26.06
2023-02-23T12:05:20.668Z,26.40
2023-02-23T12:07:59.233Z,27.13
2023-02-23T12:10:38.433Z,27.01
2023-02-23T12:13:08.565Z,26.48
2023-02-23T12:15:44.010Z,27.13
2023-02-23T12:18:28.554Z,27.14
2023-02-23T12:20:58.074Z,27.35
2023-02-23T12:23:31.671Z,27.04
2023-02-23T12:26:04.255Z,27.68
2023-02-23T12:28:34.398Z,27.03
2023-02-23T12:31:22.443Z,27.00
2023-02-23T12:33:55.620Z,27.10
2023-02-23T12:36:38.865Z,27.54
2023-02-23T12:39:25.648Z,27.35
2023-02-23T12:42:01.446Z,27.34
2023-02-23T12:45:01.942Z,26.77
2023-02-23T12:47:46.927Z,26.87
2023-02-23T12:50:50.213Z,27.06
2023-02-23T12:53:27.446Z,27.50
2023-02-23T12:56:09.289Z,27.53
2023-02-23T12:58:57.671Z,27.18
2023-02-23T13:01:31.477Z,27.48
2023-02-23T13:04:20.035Z,27.68
2023-02-23T13:07:05.404Z,28.01
2023-02-23T13:10:26.445Z,27.61
2023-02-23T13:13:05.461Z,27.85
2023-02-23T13:16:15.040Z,26.84
2023-02-23T13:19:00.144Z,27.11
2023-02-23T13:21:44.700Z,27.46
2023-02-23T13:24:25.788Z,27.36
2023-02-23T13:27:22.738Z,26.61
2023-02-23T13:29:55.624Z,25.62
2023-02-23T13:32:32.533Z,26.23
2023-02-23T13:35:17.396Z,27.04
2023-02-23T13:37:52.351Z,25.59
2023-02-23T13:40:18.828Z,24.14
2023-02-23T13:43:01.078Z,22.98
2023-02-23T13:45:49.231Z,21.91
2023-02-23T13:48:56.117Z,21.37
2023-02-23T13:51:39.524Z,21.25
2023-02-23T13:54:16.370Z,21.28
2023-02-23T13:56:53.114Z,20.73
2023-02-23T13:59:29.517Z,20.08
2023-02-23T14:01:56.965Z,20.12
2023-02-23T14:04:27.584Z,19.86
2023-02-23T14:07:09.392Z,19.37
2023-02-23T14:09:40.992Z,19.19
2023-02-23T14:12:40.228Z,18.92
2023-02-23T14:15:26.246Z,18.55
2023-02-23T14:18:15.640Z,18.41
2023-02-23T14:20:54.452Z,18.26
2023-02-23T14:23:21.064Z,18.10
2023-02-23T14:26:11.707Z,17.92
2023-02-23T14:28:41.485Z,18.09
2023-02-23T14:31:10.993Z,18.18
2023-02-23T14:33:45.803Z,18.19
2023-02-23T14:36:21.143Z,18.12
2023-02-23T14:38:58.023Z,18.12
2023-02-23T14:41:26.651Z,17.86
2023-02-23T14:44:27.193Z,17.84
2023-02-23T14:47:11.655Z,17.79
2023-02-23T14:49:52.325Z,17.83
2023-02-23T14:52:28.040Z,17.84
2023-02-23T14:55:13.053Z,17.78
2023-02-23T14:57:42.712Z,17.86
2023-02-23T15:00:23.077Z,17.82
2023-02-23T15:02:59.435Z,18.00
2023-02-23T15:05:41.007Z,17.87
2023-02-23T15:08:10.906Z,17.73
2023-02-23T15:10:40.818Z,17.66
2023-02-23T15:13:17.502Z,17.48
2023-02-23T15:15:45.756Z,17.36
2023-02-23T15:18:21.592Z,17.38
2023-02-23T15:20:48.900Z,17.40
2023-02-23T15:23:19.382Z,17.53
2023-02-23T15:25:48.173Z,17.45
2023-02-23T15:28:22.739Z,17.49
2023-02-23T15:30:51.372Z,17.47
2023-02-23T15:33:28.647Z,17.48
2023-02-23T15:36:05.158Z,17.47
2023-02-23T15:38:43.525Z,17.51
2023-02-23T15:41:33.266Z,17.50
2023-02-23T15:44:20.667Z,17.41
2023-02-23T15:46:55.580Z,17.60
2023-02-23T15:49:25.767Z,17.89
2023-02-23T15:51:59.732Z,17.89
2023-02-23T15:54:37.373Z,17.51
2023-02-23T15:57:14.116Z,17.20
2023-02-23T15:59:41.652Z,17.12
2023-02-23T16:02:20.339Z,16.91
2023-02-23T16:04:52.697Z,16.75
2023-02-23T16:07:19.103Z,16.65
2023-02-23T16:10:05.738Z,16.86
2023-02-23T16:12:36.851Z,16.95
2023-02-23T16:15:07.181Z,16.87
2023-02-23T16:17:44.506Z,16.62
2023-02-23T16:20:16.191Z,16.53
2023-02-23T16:22:47.849Z,16.73
2023-02-23T16:25:19.466Z,16.88
2023-02-23T16:27:51.714Z,16.73
2023-02-23T16:30:24.485Z,16.57
2023-02-23T16:33:25.785Z,16.39
2023-02-23T16:36:05.955Z,16.37
2023-02-23T16:38:42.097Z,16.24
2023-02-23T16:41:30.112Z,16.04
2023-02-23T16:44:00.047Z,16.02
2023-02-23T16:46:32.261Z,15.92
2023-02-23T16:48:59.414Z,15.82
2023-02-23T16:51:31.123Z,15.81
2023-02-23T16:53:57.702Z,15.79
2023-02-23T16:56:25.692Z,15.71
2023-02-23T16:58:58.374Z,15.60
2023-02-23T17:01:25.693Z,15.59
2023-02-23T17:03:54.492Z,15.52
2023-02-23T17:06:22.764Z,15.47
2023-02-23T17:08:57.662Z,15.23
2023-02-23T17:11:26.311Z,15.12
2023-02-23T17:13:52.765Z,15.17
2023-02-23T17:16:19.765Z,14.98
2023-02-23T17:18:46.644Z,15.01
2023-02-23T17:21:23.602Z,15.00
2023-02-23T17:23:52.582Z,14.67
2023-02-23T17:26:24.364Z,14.45
2023-02-23T17:28:51.558Z,14.45
2023-02-23T17:31:19.926Z,14.33
2023-02-23T17:33:47.018Z,14.22
2023-02-23T17:36:15.778Z,14.17
2023-02-23T17:38:44.138Z,14.00
2023-02-23T17:41:16.662Z,13.86
2023-02-23T17:43:43.370Z,13.89
2023-02-23T17:46:11.324Z,14.12
2023-02-23T17:48:37.858Z,14.09
2023-02-23T17:51:13.792Z,14.00
2023-02-23T17:53:41.142Z,13.85
2023-02-23T17:56:09.029Z,13.75
2023-02-23T17:58:36.274Z,13.84
2023-02-23T18:01:05.400Z,13.65
2023-02-23T18:03:34.294Z,13.38
2023-02-23T18:06:02.037Z,13.32
2023-02-23T18:08:30.235Z,13.35
2023-02-23T18:11:00.369Z,13.36
2023-02-23T18:13:28.393Z,13.34
2023-02-23T18:16:00.378Z,13.41
2023-02-23T18:18:27.372Z,13.44
2023-02-23T18:20:56.462Z,13.52
2023-02-23T18:23:25.659Z,13.39
2023-02-23T18:25:52.139Z,13.42
2023-02-23T18:28:18.830Z,13.34
2023-02-23T18:30:45.404Z,13.25
2023-02-23T18:33:13.019Z,13.38
2023-02-23T18:35:42.355Z,13.58
2023-02-23T18:38:11.592Z,13.48
2023-02-23T18:40:38.700Z,13.43
2023-02-23T18:43:05.952Z,13.34
2023-02-23T18:45:33.129Z,13.41
2023-02-23T18:47:59.644Z,13.50
2023-02-23T18:50:26.511Z,13.42
2023-02-23T18:52:56.500Z,13.30
2023-02-23T18:55:24.256Z,13.18
2023-02-23T18:57:52.736Z,12.82
2023-02-23T19:00:20.227Z,12.64
2023-02-23T19:02:47.074Z,12.64
2023-02-23T19:05:15.131Z,12.66
2023-02-23T19:07:41.967Z,12.55
2023-02-23T19:10:12.065Z,12.36
2023-02-23T19:12:39.746Z,12.41
2023-02-23T19:15:08.130Z,12.40
2023-02-23T19:17:35.767Z,12.54
2023-02-23T19:20:08.058Z,12.59
2023-02-23T19:22:35.029Z,12.80
2023-02-23T19:25:01.761Z,12.96
2023-02-23T19:27:28.242Z,12.86
2023-02-23T19:29:55.450Z,12.86
2023-02-23T19:32:22.026Z,12.84
2023-02-23T19:34:48.774Z,12.85
2023-02-23T19:37:15.322Z,12.64
2023-02-23T19:39:41.736Z,12.60
2023-02-23T19:42:09.172Z,12.89
2023-02-23T19:44:41.882Z,13.07
2023-02-23T19:47:09.566Z,13.15
2023-02-23T19:49:36.191Z,13.20
2023-02-23T19:52:02.678Z,13.25
2023-02-23T19:54:33.861Z,13.25
2023-02-23T19:57:00.421Z,13.29
2023-02-23T19:59:28.516Z,13.31
2023-02-23T20:01:55.575Z,13.23
2023-02-23T20:04:22.399Z,12.82
2023-02-23T20:06:48.825Z,12.76
2023-02-23T20:09:15.540Z,12.79
2023-02-23T20:11:42.719Z,12.93
2023-02-23T20:14:09.954Z,13.03
2023-02-23T20:16:36.927Z,13.00
2023-02-23T20:19:13.149Z,12.95
2023-02-23T20:21:41.893Z,12.77
2023-02-23T20:24:12.791Z,12.51
2023-02-23T20:26:39.294Z,12.38
2023-02-23T20:29:10.582Z,12.41
2023-02-23T20:31:41.601Z,12.57
2023-02-23T20:34:10.953Z,12.70
2023-02-23T20:36:38.247Z,12.68
2023-02-23T20:39:04.971Z,12.55
2023-02-23T20:41:31.966Z,12.57
2023-02-23T20:44:00.867Z,12.65
2023-02-23T20:46:28.448Z,12.51
2023-02-23T20:48:55.570Z,12.33
2023-02-23T20:51:22.912Z,12.32
2023-02-23T20:53:49.604Z,12.35
2023-02-23T20:56:18.524Z,12.30
2023-02-23T20:58:45.463Z,12.12
2023-02-23T21:01:18.127Z,12.19
2023-02-23T21:03:44.701Z,11.91
2023-02-23T21:06:11.196Z,11.89
2023-02-23T21:08:37.981Z,11.80
2023-02-23T21:11:06.096Z,11.96
2023-02-23T21:13:32.821Z,12.11
2023-02-23T21:16:01.411Z,12.23
2023-02-23T21:18:28.979Z,12.19
2023-02-23T21:20:56.812Z,12.06
2023-02-23T21:23:25.482Z,12.05
2023-02-23T21:25:54.383Z,11.88
2023-02-23T21:28:22.532Z,11.78
2023-02-23T21:30:49.232Z,11.77
2023-02-23T21:33:18.533Z,11.78
2023-02-23T21:35:45.903Z,11.90
2023-02-23T21:38:12.472Z,11.61
2023-02-23T21:40:42.195Z,11.61
2023-02-23T21:43:09.478Z,11.60
2023-02-23T21:45:39.276Z,11.46
2023-02-23T21:48:06.120Z,11.37
2023-02-23T21:50:33.440Z,11.18
2023-02-23T21:52:59.995Z,11.24
2023-02-23T21:55:26.431Z,11.23
2023-02-23T21:57:58.283Z,11.02
2023-02-23T22:00:35.874Z,11.11
2023-02-23T22:03:03.232Z,11.19
2023-02-23T22:05:29.771Z,11.33
2023-02-23T22:07:56.225Z,11.23
2023-02-23T22:10:24.246Z,11.10
2023-02-23T22:12:55.809Z,10.98
2023-02-23T22:15:27.534Z,10.90
2023-02-23T22:17:54.487Z,11.08
2023-02-23T22:20:21.823Z,10.99
2023-02-23T22:22:50.499Z,11.04
2023-02-23T22:25:18.909Z,11.09
2023-02-23T22:27:45.800Z,10.98
2023-02-23T22:30:14.019Z,10.98
2023-02-23T22:32:42.507Z,10.90
2023-02-23T22:35:09.803Z,10.70
2023-02-23T22:37:36.694Z,10.71
2023-02-23T22:40:16.491Z,10.63
2023-02-23T22:42:49.701Z,10.63
2023-02-23T22:45:16.870Z,10.23
2023-02-23T22:47:43.414Z,10.44
2023-02-23T22:50:12.088Z,10.71
2023-02-23T22:52:38.777Z,10.88
2023-02-23T22:55:06.623Z,10.96
2023-02-23T22:57:34.243Z,10.90
2023-02-23T23:00:04.573Z,10.81
2023-02-23T23:02:33.293Z,10.69
2023-02-23T23:04:59.851Z,10.72
2023-02-23T23:07:26.496Z,10.74
2023-02-23T23:09:54.345Z,10.73
2023-02-23T23:12:20.873Z,10.70
2023-02-23T23:14:47.566Z,10.61
2023-02-23T23:17:15.002Z,10.58
2023-02-23T23:19:41.617Z,10.58
2023-02-23T23:22:14.253Z,10.57
2023-02-23T23:24:45.931Z,10.52
2023-02-23T23:27:14.671Z,10.46
2023-02-23T23:29:45.594Z,10.49
2023-02-23T23:32:19.682Z,10.43
2023-02-23T23:34:48.642Z,10.33
2023-02-23T23:37:17.223Z,10.45
2023-02-23T23:39:44.323Z,10.53
2023-02-23T23:42:11.039Z,10.47
2023-02-23T23:44:37.531Z,10.50
2023-02-23T23:47:07.144Z,10.44
2023-02-23T23:49:39.678Z,10.48
2023-02-23T23:52:06.735Z,10.32
2023-02-23T23:54:39.233Z,10.14
2023-02-23T23:57:07.211Z,10.10
2023-02-23T23:59:35.287Z,10.25
